sensor_id;sensor_type;location;lat;lon;timestamp;pressure;altitude;pressure_sealevel;temperature;humidity
69306;BME280;56427;51.580;4.656;2023-03-03T00:00:49;102463.41;;;1.00;100.00
69306;BME280;56427;51.580;4.656;2023-03-03T00:03:21;102456.75;;;0.91;100.00
69306;BME280;56427;51.580;4.656;2023-03-03T00:05:47;102448.03;;;1.03;100.00
69306;BME280;56427;51.580;4.656;2023-03-03T00:08:12;102456.41;;;1.11;100.00
69306;BME280;56427;51.580;4.656;2023-03-03T00:10:38;102450.56;;;1.04;100.00
69306;BME280;56427;51.580;4.656;2023-03-03T00:13:16;102463.50;;;0.94;100.00
69306;BME280;56427;51.580;4.656;2023-03-03T00:15:42;102460.91;;;0.97;100.00
69306;BME280;56427;51.580;4.656;2023-03-03T00:18:35;102466.88;;;0.97;100.00
69306;BME280;56427;51.580;4.656;2023-03-03T00:21:03;102471.16;;;0.95;100.00
69306;BME280;56427;51.580;4.656;2023-03-03T00:23:38;102470.28;;;0.98;100.00
69306;BME280;56427;51.580;4.656;2023-03-03T00:26:29;102476.41;;;0.87;100.00
69306;BME280;56427;51.580;4.656;2023-03-03T00:28:56;102472.19;;;0.83;100.00
69306;BME280;56427;51.580;4.656;2023-03-03T00:31:32;102483.25;;;0.84;100.00
69306;BME280;56427;51.580;4.656;2023-03-03T00:34:24;102471.63;;;0.66;100.00
69306;BME280;56427;51.580;4.656;2023-03-03T00:36:53;102471.63;;;0.66;100.00
69306;BME280;56427;51.580;4.656;2023-03-03T00:39:35;102469.91;;;0.66;100.00
69306;BME280;56427;51.580;4.656;2023-03-03T00:42:01;102474.94;;;0.72;100.00
69306;BME280;56427;51.580;4.656;2023-03-03T00:47:12;102474.56;;;0.40;100.00
69306;BME280;56427;51.580;4.656;2023-03-03T00:49:40;102466.97;;;0.91;100.00
69306;BME280;56427;51.580;4.656;2023-03-03T00:52:16;102451.25;;;0.61;100.00
69306;BME280;56427;51.580;4.656;2023-03-03T00:54:42;102466.38;;;0.75;100.00
69306;BME280;56427;51.580;4.656;2023-03-03T00:57:08;102478.41;;;0.67;100.00
69306;BME280;56427;51.580;4.656;2023-03-03T00:59:33;102470.78;;;0.64;100.00
69306;BME280;56427;51.580;4.656;2023-03-03T01:01:59;102465.63;;;0.67;100.00
69306;BME280;56427;51.580;4.656;2023-03-03T01:04:24;102474.38;;;0.52;100.00
69306;BME280;56427;51.580;4.656;2023-03-03T01:06:50;102470.00;;;0.60;100.00
69306;BME280;56427;51.580;4.656;2023-03-03T01:09:15;102476.84;;;0.58;100.00
69306;BME280;56427;51.580;4.656;2023-03-03T01:11:40;102470.91;;;0.58;100.00
69306;BME280;56427;51.580;4.656;2023-03-03T01:14:06;102465.22;;;0.39;100.00
69306;BME280;56427;51.580;4.656;2023-03-03T01:16:33;102463.25;;;0.58;100.00
69306;BME280;56427;51.580;4.656;2023-03-03T01:18:58;102476.78;;;0.63;100.00
69306;BME280;56427;51.580;4.656;2023-03-03T01:21:23;102478.72;;;0.45;100.00
69306;BME280;56427;51.580;4.656;2023-03-03T01:23:49;102475.34;;;0.45;100.00
69306;BME280;56427;51.580;4.656;2023-03-03T01:26:14;102468.63;;;0.38;100.00
69306;BME280;56427;51.580;4.656;2023-03-03T01:28:40;102473.94;;;0.22;100.00
69306;BME280;56427;51.580;4.656;2023-03-03T01:31:05;102468.88;;;0.19;100.00
69306;BME280;56427;51.580;4.656;2023-03-03T01:33:32;102478.94;;;0.31;100.00
69306;BME280;56427;51.580;4.656;2023-03-03T01:35:57;102473.19;;;0.15;100.00
69306;BME280;56427;51.580;4.656;2023-03-03T01:38:23;102474.75;;;0.24;100.00
69306;BME280;56427;51.580;4.656;2023-03-03T01:40:53;102475.81;;;0.09;100.00
69306;BME280;56427;51.580;4.656;2023-03-03T01:43:18;102479.09;;;0.17;100.00
69306;BME280;56427;51.580;4.656;2023-03-03T01:48:13;102477.16;;;0.38;100.00
69306;BME280;56427;51.580;4.656;2023-03-03T01:50:51;102481.72;;;0.11;100.00
69306;BME280;56427;51.580;4.656;2023-03-03T01:53:22;102484.97;;;0.26;100.00
69306;BME280;56427;51.580;4.656;2023-03-03T01:55:49;102476.94;;;-0.13;100.00
69306;BME280;56427;51.580;4.656;2023-03-03T01:58:23;102479.28;;;0.05;100.00
69306;BME280;56427;51.580;4.656;2023-03-03T02:00:54;102478.63;;;-0.11;100.00
69306;BME280;56427;51.580;4.656;2023-03-03T02:03:22;102481.56;;;0.27;100.00
69306;BME280;56427;51.580;4.656;2023-03-03T02:05:49;102478.00;;;0.37;100.00
69306;BME280;56427;51.580;4.656;2023-03-03T02:08:21;102482.31;;;0.33;100.00
69306;BME280;56427;51.580;4.656;2023-03-03T02:10:49;102477.88;;;0.46;100.00
69306;BME280;56427;51.580;4.656;2023-03-03T02:13:14;102477.25;;;0.29;100.00
69306;BME280;56427;51.580;4.656;2023-03-03T02:15:39;102475.75;;;0.14;100.00
69306;BME280;56427;51.580;4.656;2023-03-03T02:18:09;102473.84;;;0.30;100.00
69306;BME280;56427;51.580;4.656;2023-03-03T02:20:56;102474.81;;;0.21;100.00
69306;BME280;56427;51.580;4.656;2023-03-03T02:28:26;102463.00;;;0.12;100.00
69306;BME280;56427;51.580;4.656;2023-03-03T02:30:57;102467.22;;;0.16;100.00
69306;BME280;56427;51.580;4.656;2023-03-03T02:33:23;102465.75;;;-0.02;100.00
69306;BME280;56427;51.580;4.656;2023-03-03T02:35:49;102468.31;;;-0.03;100.00
69306;BME280;56427;51.580;4.656;2023-03-03T02:46:27;102464.00;;;0.02;100.00
69306;BME280;56427;51.580;4.656;2023-03-03T02:48:53;102469.19;;;-0.06;100.00
69306;BME280;56427;51.580;4.656;2023-03-03T02:51:18;102473.28;;;0.06;100.00
69306;BME280;56427;51.580;4.656;2023-03-03T02:53:44;102478.25;;;0.18;100.00
69306;BME280;56427;51.580;4.656;2023-03-03T02:56:10;102474.03;;;0.14;100.00
69306;BME280;56427;51.580;4.656;2023-03-03T02:58:36;102478.34;;;0.12;100.00
69306;BME280;56427;51.580;4.656;2023-03-03T03:01:02;102474.00;;;0.17;100.00
69306;BME280;56427;51.580;4.656;2023-03-03T03:03:27;102480.03;;;0.13;100.00
69306;BME280;56427;51.580;4.656;2023-03-03T03:05:53;102480.91;;;0.11;100.00
69306;BME280;56427;51.580;4.656;2023-03-03T03:08:18;102484.28;;;0.13;100.00
69306;BME280;56427;51.580;4.656;2023-03-03T03:10:44;102481.94;;;-0.03;100.00
69306;BME280;56427;51.580;4.656;2023-03-03T03:13:09;102469.94;;;0.04;100.00
69306;BME280;56427;51.580;4.656;2023-03-03T03:15:35;102470.91;;;-0.05;100.00
69306;BME280;56427;51.580;4.656;2023-03-03T03:18:00;102472.47;;;0.04;100.00
69306;BME280;56427;51.580;4.656;2023-03-03T03:20:26;102475.06;;;0.01;100.00
69306;BME280;56427;51.580;4.656;2023-03-03T03:22:51;102479.19;;;0.10;100.00
69306;BME280;56427;51.580;4.656;2023-03-03T03:25:17;102479.19;;;0.11;100.00
69306;BME280;56427;51.580;4.656;2023-03-03T03:27:42;102480.16;;;0.03;100.00
69306;BME280;56427;51.580;4.656;2023-03-03T03:30:08;102482.66;;;0.07;100.00
69306;BME280;56427;51.580;4.656;2023-03-03T03:32:33;102482.69;;;0.06;100.00
69306;BME280;56427;51.580;4.656;2023-03-03T03:34:58;102492.88;;;0.06;100.00
69306;BME280;56427;51.580;4.656;2023-03-03T03:37:26;102494.44;;;0.17;100.00
69306;BME280;56427;51.580;4.656;2023-03-03T03:39:52;102495.31;;;0.16;100.00
69306;BME280;56427;51.580;4.656;2023-03-03T03:42:18;102498.00;;;0.04;100.00
69306;BME280;56427;51.580;4.656;2023-03-03T03:44:43;102491.84;;;0.21;100.00
69306;BME280;56427;51.580;4.656;2023-03-03T03:47:09;102494.50;;;0.11;100.00
69306;BME280;56427;51.580;4.656;2023-03-03T03:49:34;102494.59;;;0.05;100.00
69306;BME280;56427;51.580;4.656;2023-03-03T03:51:59;102491.97;;;0.10;100.00
69306;BME280;56427;51.580;4.656;2023-03-03T03:54:26;102496.28;;;0.05;100.00
69306;BME280;56427;51.580;4.656;2023-03-03T03:56:51;102496.25;;;0.08;100.00
69306;BME280;56427;51.580;4.656;2023-03-03T03:59:18;102485.31;;;-0.02;100.00
69306;BME280;56427;51.580;4.656;2023-03-03T04:01:44;102504.72;;;0.10;100.00
69306;BME280;56427;51.580;4.656;2023-03-03T04:04:09;102497.03;;;0.14;100.00
69306;BME280;56427;51.580;4.656;2023-03-03T04:06:35;102495.25;;;0.20;100.00
69306;BME280;56427;51.580;4.656;2023-03-03T04:09:00;102491.97;;;0.10;100.00
69306;BME280;56427;51.580;4.656;2023-03-03T04:11:25;102490.22;;;0.16;100.00
69306;BME280;56427;51.580;4.656;2023-03-03T04:13:51;102496.16;;;0.17;100.00
69306;BME280;56427;51.580;4.656;2023-03-03T04:16:16;102503.13;;;0.03;100.00
69306;BME280;56427;51.580;4.656;2023-03-03T04:18:41;102504.06;;;-0.03;100.00
69306;BME280;56427;51.580;4.656;2023-03-03T04:21:11;102510.78;;;0.03;100.00
69306;BME280;56427;51.580;4.656;2023-03-03T04:23:36;102505.78;;;-0.07;100.00
69306;BME280;56427;51.580;4.656;2023-03-03T04:26:02;102509.22;;;-0.08;100.00
69306;BME280;56427;51.580;4.656;2023-03-03T04:28:27;102508.44;;;-0.14;100.00
69306;BME280;56427;51.580;4.656;2023-03-03T04:30:52;102516.13;;;-0.17;100.00
69306;BME280;56427;51.580;4.656;2023-03-03T04:33:18;102523.81;;;-0.21;100.00
69306;BME280;56427;51.580;4.656;2023-03-03T04:35:44;102518.66;;;-0.14;100.00
69306;BME280;56427;51.580;4.656;2023-03-03T04:38:10;102516.09;;;-0.14;100.00
69306;BME280;56427;51.580;4.656;2023-03-03T04:40:36;102517.72;;;-0.10;100.00
69306;BME280;56427;51.580;4.656;2023-03-03T04:43:01;102522.88;;;-0.13;100.00
69306;BME280;56427;51.580;4.656;2023-03-03T04:45:26;102517.78;;;-0.13;100.00
69306;BME280;56427;51.580;4.656;2023-03-03T04:47:52;102521.06;;;-0.04;100.00
69306;BME280;56427;51.580;4.656;2023-03-03T04:50:17;102520.19;;;-0.01;100.00
69306;BME280;56427;51.580;4.656;2023-03-03T04:52:43;102520.16;;;0.04;100.00
69306;BME280;56427;51.580;4.656;2023-03-03T04:55:08;102518.47;;;0.01;100.00
69306;BME280;56427;51.580;4.656;2023-03-03T04:57:34;102517.59;;;0.02;100.00
69306;BME280;56427;51.580;4.656;2023-03-03T04:59:59;102522.47;;;0.21;100.00
69306;BME280;56427;51.580;4.656;2023-03-03T05:02:24;102531.59;;;0.40;100.00
69306;BME280;56427;51.580;4.656;2023-03-03T05:04:50;102528.44;;;0.20;100.00
69306;BME280;56427;51.580;4.656;2023-03-03T05:07:15;102523.19;;;0.33;100.00
69306;BME280;56427;51.580;4.656;2023-03-03T05:09:43;102529.16;;;0.29;100.00
69306;BME280;56427;51.580;4.656;2023-03-03T05:12:08;102528.59;;;0.07;100.00
69306;BME280;56427;51.580;4.656;2023-03-03T05:14:33;102537.97;;;0.07;100.00
69306;BME280;56427;51.580;4.656;2023-03-03T05:16:59;102526.13;;;0.01;100.00
69306;BME280;56427;51.580;4.656;2023-03-03T05:19:24;102533.75;;;0.04;100.00
69306;BME280;56427;51.580;4.656;2023-03-03T05:21:50;102538.81;;;0.07;100.00
69306;BME280;56427;51.580;4.656;2023-03-03T05:24:15;102536.31;;;0.04;100.00
69306;BME280;56427;51.580;4.656;2023-03-03T05:26:41;102539.56;;;0.15;100.00
69306;BME280;56427;51.580;4.656;2023-03-03T05:29:07;102542.16;;;0.12;100.00
69306;BME280;56427;51.580;4.656;2023-03-03T05:31:33;102537.84;;;0.16;100.00
69306;BME280;56427;51.580;4.656;2023-03-03T05:33:58;102535.25;;;0.21;100.00
69306;BME280;56427;51.580;4.656;2023-03-03T05:36:24;102542.66;;;0.39;100.00
69306;BME280;56427;51.580;4.656;2023-03-03T05:38:49;102538.59;;;0.24;100.00
69306;BME280;56427;51.580;4.656;2023-03-03T05:41:14;102541.97;;;0.28;100.00
69306;BME280;56427;51.580;4.656;2023-03-03T05:43:40;102538.56;;;0.27;100.00
69306;BME280;56427;51.580;4.656;2023-03-03T05:46:08;102539.31;;;0.35;100.00
69306;BME280;56427;51.580;4.656;2023-03-03T05:48:34;102542.84;;;0.27;100.00
69306;BME280;56427;51.580;4.656;2023-03-03T05:50:59;102544.47;;;0.31;100.00
69306;BME280;56427;51.580;4.656;2023-03-03T05:53:26;102544.44;;;0.35;100.00
69306;BME280;56427;51.580;4.656;2023-03-03T05:55:52;102554.72;;;0.29;100.00
69306;BME280;56427;51.580;4.656;2023-03-03T05:58:17;102548.84;;;0.21;100.00
69306;BME280;56427;51.580;4.656;2023-03-03T06:00:43;102549.63;;;0.28;100.00
69306;BME280;56427;51.580;4.656;2023-03-03T06:03:08;102556.50;;;0.23;100.00
69306;BME280;56427;51.580;4.656;2023-03-03T06:05:33;102560.81;;;0.19;100.00
69306;BME280;56427;51.580;4.656;2023-03-03T06:07:59;102559.09;;;0.20;100.00
69306;BME280;56427;51.580;4.656;2023-03-03T06:10:24;102556.59;;;0.15;100.00
69306;BME280;56427;51.580;4.656;2023-03-03T06:12:50;102565.09;;;0.15;100.00
69306;BME280;56427;51.580;4.656;2023-03-03T06:15:16;102566.84;;;0.13;100.00
69306;BME280;56427;51.580;4.656;2023-03-03T06:17:42;102562.41;;;0.26;100.00
69306;BME280;56427;51.580;4.656;2023-03-03T06:20:07;102563.31;;;0.24;100.00
69306;BME280;56427;51.580;4.656;2023-03-03T06:22:33;102565.91;;;0.19;100.00
69306;BME280;56427;51.580;4.656;2023-03-03T06:24:58;102563.31;;;0.22;100.00
69306;BME280;56427;51.580;4.656;2023-03-03T06:27:24;102567.28;;;0.48;100.00
69306;BME280;56427;51.580;4.656;2023-03-03T06:29:49;102564.06;;;0.30;100.00
69306;BME280;56427;51.580;4.656;2023-03-03T06:32:14;102574.94;;;0.46;100.00
69306;BME280;56427;51.580;4.656;2023-03-03T06:34:40;102569.25;;;0.24;100.00
69306;BME280;56427;51.580;4.656;2023-03-03T06:37:05;102581.09;;;0.33;100.00
69306;BME280;56427;51.580;4.656;2023-03-03T06:39:31;102581.84;;;0.41;100.00
69306;BME280;56427;51.580;4.656;2023-03-03T06:41:56;102590.44;;;0.32;100.00
69306;BME280;56427;51.580;4.656;2023-03-03T06:44:22;102592.28;;;0.18;100.00
69306;BME280;56427;51.580;4.656;2023-03-03T06:46:47;102599.16;;;0.14;100.00
69306;BME280;56427;51.580;4.656;2023-03-03T06:49:13;102599.91;;;0.24;100.00
69306;BME280;56427;51.580;4.656;2023-03-03T06:51:38;102604.91;;;0.32;100.00
69306;BME280;56427;51.580;4.656;2023-03-03T06:54:20;102606.53;;;0.39;100.00
69306;BME280;56427;51.580;4.656;2023-03-03T06:56:46;102599.75;;;0.36;100.00
69306;BME280;56427;51.580;4.656;2023-03-03T06:59:17;102609.75;;;0.55;100.00
69306;BME280;56427;51.580;4.656;2023-03-03T07:01:45;102610.78;;;0.40;100.00
69306;BME280;56427;51.580;4.656;2023-03-03T07:04:28;102617.38;;;0.60;100.00
69306;BME280;56427;51.580;4.656;2023-03-03T07:06:56;102612.41;;;0.44;100.00
69306;BME280;56427;51.580;4.656;2023-03-03T07:09:26;102608.88;;;0.58;100.00
69306;BME280;56427;51.580;4.656;2023-03-03T07:11:56;102608.78;;;0.62;100.00
69306;BME280;56427;51.580;4.656;2023-03-03T07:14:24;102615.59;;;0.63;100.00
69306;BME280;56427;51.580;4.656;2023-03-03T07:16:51;102620.81;;;0.55;100.00
69306;BME280;56427;51.580;4.656;2023-03-03T07:19:32;102615.69;;;0.57;100.00
69306;BME280;56427;51.580;4.656;2023-03-03T07:22:00;102620.69;;;0.66;100.00
69306;BME280;56427;51.580;4.656;2023-03-03T07:24:36;102614.09;;;0.48;100.00
69306;BME280;56427;51.580;4.656;2023-03-03T07:27:25;102599.53;;;0.55;100.00
69306;BME280;56427;51.580;4.656;2023-03-03T07:29:54;102616.50;;;0.59;100.00
69306;BME280;56427;51.580;4.656;2023-03-03T07:32:36;102623.25;;;0.66;100.00
69306;BME280;56427;51.580;4.656;2023-03-03T07:35:28;102629.03;;;0.81;100.00
69306;BME280;56427;51.580;4.656;2023-03-03T07:37:54;102619.72;;;0.75;100.00
69306;BME280;56427;51.580;4.656;2023-03-03T07:40:33;102633.13;;;0.93;100.00
69306;BME280;56427;51.580;4.656;2023-03-03T07:43:01;102630.75;;;0.76;100.00
69306;BME280;56427;51.580;4.656;2023-03-03T07:45:38;102636.63;;;0.84;100.00
69306;BME280;56427;51.580;4.656;2023-03-03T07:50:39;102638.28;;;0.88;100.00
69306;BME280;56427;51.580;4.656;2023-03-03T07:53:14;102637.28;;;1.00;100.00
69306;BME280;56427;51.580;4.656;2023-03-03T07:55:46;102644.19;;;0.91;100.00
69306;BME280;56427;51.580;4.656;2023-03-03T08:03:45;102648.41;;;0.97;100.00
69306;BME280;56427;51.580;4.656;2023-03-03T08:08:59;102656.97;;;0.93;100.00
69306;BME280;56427;51.580;4.656;2023-03-03T08:11:26;102662.03;;;0.98;100.00
69306;BME280;56427;51.580;4.656;2023-03-03T08:13:52;102663.63;;;1.03;100.00
69306;BME280;56427;51.580;4.656;2023-03-03T08:16:29;102669.44;;;1.15;100.00
69306;BME280;56427;51.580;4.656;2023-03-03T08:19:01;102657.78;;;0.94;100.00
69306;BME280;56427;51.580;4.656;2023-03-03T08:21:27;102672.03;;;1.13;100.00
69306;BME280;56427;51.580;4.656;2023-03-03T08:23:53;102673.69;;;1.17;100.00
69306;BME280;56427;51.580;4.656;2023-03-03T08:26:23;102676.81;;;1.36;100.00
69306;BME280;56427;51.580;4.656;2023-03-03T08:28:49;102669.28;;;1.27;100.00
69306;BME280;56427;51.580;4.656;2023-03-03T08:31:15;102678.75;;;1.20;100.00
69306;BME280;56427;51.580;4.656;2023-03-03T08:33:42;102685.44;;;1.29;100.00
69306;BME280;56427;51.580;4.656;2023-03-03T08:36:08;102682.06;;;1.27;100.00
69306;BME280;56427;51.580;4.656;2023-03-03T08:38:34;102683.41;;;1.51;100.00
69306;BME280;56427;51.580;4.656;2023-03-03T08:40:59;102675.88;;;1.43;100.00
69306;BME280;56427;51.580;4.656;2023-03-03T08:43:25;102687.38;;;1.69;100.00
69306;BME280;56427;51.580;4.656;2023-03-03T08:45:52;102686.69;;;1.59;100.00
69306;BME280;56427;51.580;4.656;2023-03-03T08:48:19;102695.41;;;1.47;100.00
69306;BME280;56427;51.580;4.656;2023-03-03T08:50:45;102681.09;;;1.36;100.00
69306;BME280;56427;51.580;4.656;2023-03-03T08:53:13;102685.16;;;1.47;100.00
69306;BME280;56427;51.580;4.656;2023-03-03T08:55:39;102692.94;;;1.41;100.00
69306;BME280;56427;51.580;4.656;2023-03-03T08:58:04;102695.44;;;1.44;100.00
69306;BME280;56427;51.580;4.656;2023-03-03T09:00:30;102699.66;;;1.50;100.00
69306;BME280;56427;51.580;4.656;2023-03-03T09:02:55;102701.19;;;1.60;100.00
69306;BME280;56427;51.580;4.656;2023-03-03T09:05:21;102698.56;;;1.65;100.00
69306;BME280;56427;51.580;4.656;2023-03-03T09:07:48;102702.44;;;1.89;100.00
69306;BME280;56427;51.580;4.656;2023-03-03T09:10:19;102709.34;;;1.82;100.00
69306;BME280;56427;51.580;4.656;2023-03-03T09:12:47;102706.06;;;1.74;100.00
69306;BME280;56427;51.580;4.656;2023-03-03T09:17:53;102704.88;;;1.95;100.00
69306;BME280;56427;51.580;4.656;2023-03-03T09:22:48;102702.19;;;2.05;100.00
69306;BME280;56427;51.580;4.656;2023-03-03T09:25:32;102707.72;;;1.78;100.00
69306;BME280;56427;51.580;4.656;2023-03-03T09:27:59;102717.84;;;1.88;100.00
69306;BME280;56427;51.580;4.656;2023-03-03T09:32:58;102716.84;;;1.95;100.00
69306;BME280;56427;51.580;4.656;2023-03-03T09:35:39;102708.22;;;1.99;100.00
69306;BME280;56427;51.580;4.656;2023-03-03T09:43:41;102706.66;;;2.40;100.00
69306;BME280;56427;51.580;4.656;2023-03-03T09:46:20;102697.88;;;2.53;100.00
69306;BME280;56427;51.580;4.656;2023-03-03T09:49:36;102699.13;;;2.32;100.00
69306;BME280;56427;51.580;4.656;2023-03-03T09:52:26;102702.56;;;2.30;100.00
69306;BME280;56427;51.580;4.656;2023-03-03T10:08:59;102726.06;;;2.53;100.00
69306;BME280;56427;51.580;4.656;2023-03-03T10:14:30;102722.56;;;3.01;100.00
69306;BME280;56427;51.580;4.656;2023-03-03T10:17:23;102726.03;;;2.99;100.00
69306;BME280;56427;51.580;4.656;2023-03-03T10:20:03;102725.28;;;2.93;100.00
69306;BME280;56427;51.580;4.656;2023-03-03T10:25:32;102732.00;;;2.98;100.00
69306;BME280;56427;51.580;4.656;2023-03-03T10:31:01;102726.78;;;3.02;100.00
69306;BME280;56427;51.580;4.656;2023-03-03T10:43:49;102716.84;;;3.65;100.00
69306;BME280;56427;51.580;4.656;2023-03-03T10:52:18;102714.91;;;3.75;100.00
69306;BME280;56427;51.580;4.656;2023-03-03T10:57:56;102713.38;;;4.02;100.00
69306;BME280;56427;51.580;4.656;2023-03-03T11:00:58;102711.13;;;4.22;100.00
69306;BME280;56427;51.580;4.656;2023-03-03T11:12:18;102708.69;;;4.51;100.00
69306;BME280;56427;51.580;4.656;2023-03-03T11:15:17;102699.41;;;4.45;100.00
69306;BME280;56427;51.580;4.656;2023-03-03T11:23:38;102698.31;;;5.13;100.00
69306;BME280;56427;51.580;4.656;2023-03-03T11:25:44;102698.91;;;5.22;100.00
69306;BME280;56427;51.580;4.656;2023-03-03T11:28:58;102696.84;;;5.33;100.00
69306;BME280;56427;51.580;4.656;2023-03-03T11:31:12;102689.06;;;5.06;100.00
69306;BME280;56427;51.580;4.656;2023-03-03T11:36:48;102677.41;;;4.94;100.00
69306;BME280;56427;51.580;4.656;2023-03-03T11:39:19;102685.22;;;5.20;100.00
69306;BME280;56427;51.580;4.656;2023-03-03T11:50:21;102685.00;;;5.27;100.00
69306;BME280;56427;51.580;4.656;2023-03-03T12:03:33;102683.34;;;5.53;100.00
69306;BME280;56427;51.580;4.656;2023-03-03T12:11:44;102669.38;;;5.33;100.00
69306;BME280;56427;51.580;4.656;2023-03-03T12:22:25;102664.56;;;6.26;100.00
69306;BME280;56427;51.580;4.656;2023-03-03T12:38:30;102658.91;;;6.40;100.00
69306;BME280;56427;51.580;4.656;2023-03-03T12:41:11;102655.50;;;6.40;100.00
69306;BME280;56427;51.580;4.656;2023-03-03T12:48:46;102647.97;;;6.57;100.00
69306;BME280;56427;51.580;4.656;2023-03-03T12:54:13;102649.75;;;6.79;100.00
69306;BME280;56427;51.580;4.656;2023-03-03T13:07:36;102636.22;;;6.96;100.00
69306;BME280;56427;51.580;4.656;2023-03-03T13:13:08;102637.22;;;7.77;100.00
69306;BME280;56427;51.580;4.656;2023-03-03T13:19:01;102626.63;;;7.83;100.00
69306;BME280;56427;51.580;4.656;2023-03-03T13:24:18;102625.09;;;7.36;100.00
69306;BME280;56427;51.580;4.656;2023-03-03T13:26:56;102625.84;;;7.40;100.00
69306;BME280;56427;51.580;4.656;2023-03-03T13:31:59;102619.84;;;7.60;100.00
69306;BME280;56427;51.580;4.656;2023-03-03T13:40:05;102607.75;;;7.61;100.00
69306;BME280;56427;51.580;4.656;2023-03-03T13:42:49;102623.06;;;7.65;100.00
69306;BME280;56427;51.580;4.656;2023-03-03T13:45:28;102606.75;;;7.65;100.00
69306;BME280;56427;51.580;4.656;2023-03-03T13:50:52;102603.91;;;8.29;100.00
69306;BME280;56427;51.580;4.656;2023-03-03T14:01:17;102598.56;;;8.14;100.00
69306;BME280;56427;51.580;4.656;2023-03-03T14:06:31;102598.88;;;8.26;100.00
69306;BME280;56427;51.580;4.656;2023-03-03T14:12:53;102601.50;;;8.45;100.00
69306;BME280;56427;51.580;4.656;2023-03-03T14:15:27;102595.16;;;8.13;100.00
69306;BME280;56427;51.580;4.656;2023-03-03T14:20:54;102590.06;;;7.91;100.00
69306;BME280;56427;51.580;4.656;2023-03-03T14:24:06;102601.28;;;7.71;100.00
69306;BME280;56427;51.580;4.656;2023-03-03T14:26:12;102591.34;;;7.41;100.00
69306;BME280;56427;51.580;4.656;2023-03-03T14:28:45;102589.22;;;7.51;100.00
69306;BME280;56427;51.580;4.656;2023-03-03T14:36:38;102587.09;;;9.13;97.96
69306;BME280;56427;51.580;4.656;2023-03-03T14:39:35;102580.97;;;8.60;93.57
69306;BME280;56427;51.580;4.656;2023-03-03T14:42:13;102572.28;;;8.04;93.13
69306;BME280;56427;51.580;4.656;2023-03-03T14:44:53;102573.72;;;7.51;96.00
69306;BME280;56427;51.580;4.656;2023-03-03T14:47:24;102575.56;;;7.88;97.92
69306;BME280;56427;51.580;4.656;2023-03-03T14:49:52;102584.66;;;7.97;96.42
69306;BME280;56427;51.580;4.656;2023-03-03T14:52:27;102586.53;;;8.89;97.81
69306;BME280;56427;51.580;4.656;2023-03-03T14:54:58;102576.56;;;8.98;92.87
69306;BME280;56427;51.580;4.656;2023-03-03T15:00:00;102574.16;;;8.76;87.63
69306;BME280;56427;51.580;4.656;2023-03-03T15:02:37;102574.59;;;8.10;89.79
69306;BME280;56427;51.580;4.656;2023-03-03T15:05:28;102563.88;;;7.80;91.69
69306;BME280;56427;51.580;4.656;2023-03-03T15:10:36;102566.84;;;7.50;94.49
69306;BME280;56427;51.580;4.656;2023-03-03T15:16:02;102557.47;;;7.88;94.88
69306;BME280;56427;51.580;4.656;2023-03-03T15:18:29;102557.72;;;7.82;94.95
69306;BME280;56427;51.580;4.656;2023-03-03T15:21:08;102556.38;;;7.73;97.46
69306;BME280;56427;51.580;4.656;2023-03-03T15:23:53;102557.19;;;7.55;97.91
69306;BME280;56427;51.580;4.656;2023-03-03T15:26:23;102556.22;;;7.37;100.00
69306;BME280;56427;51.580;4.656;2023-03-03T15:29:16;102552.38;;;7.66;100.00
69306;BME280;56427;51.580;4.656;2023-03-03T15:34:41;102545.63;;;7.83;100.00
69306;BME280;56427;51.580;4.656;2023-03-03T15:37:26;102549.56;;;7.52;100.00
69306;BME280;56427;51.580;4.656;2023-03-03T15:40:08;102548.78;;;7.50;100.00
69306;BME280;56427;51.580;4.656;2023-03-03T15:46:15;102547.69;;;8.33;97.66
69306;BME280;56427;51.580;4.656;2023-03-03T15:57:30;102544.09;;;8.74;94.29
69306;BME280;56427;51.580;4.656;2023-03-03T16:02:41;102531.56;;;8.47;93.84
69306;BME280;56427;51.580;4.656;2023-03-03T16:05:33;102538.53;;;8.26;95.73
69306;BME280;56427;51.580;4.656;2023-03-03T16:08:11;102536.91;;;7.85;98.77
69306;BME280;56427;51.580;4.656;2023-03-03T16:19:05;102545.81;;;7.18;100.00
69306;BME280;56427;51.580;4.656;2023-03-03T16:21:54;102536.97;;;7.24;100.00
69306;BME280;56427;51.580;4.656;2023-03-03T16:24:48;102540.28;;;7.27;100.00
69306;BME280;56427;51.580;4.656;2023-03-03T16:27:29;102538.59;;;7.47;100.00
69306;BME280;56427;51.580;4.656;2023-03-03T16:33:13;102544.22;;;7.15;100.00
69306;BME280;56427;51.580;4.656;2023-03-03T16:35:30;102550.38;;;7.11;100.00
69306;BME280;56427;51.580;4.656;2023-03-03T16:38:01;102540.25;;;7.07;100.00
69306;BME280;56427;51.580;4.656;2023-03-03T16:40:31;102539.91;;;6.94;100.00
69306;BME280;56427;51.580;4.656;2023-03-03T16:46:05;102560.38;;;6.98;100.00
69306;BME280;56427;51.580;4.656;2023-03-03T16:48:53;102547.00;;;6.89;100.00
69306;BME280;56427;51.580;4.656;2023-03-03T16:51:44;102549.56;;;6.89;100.00
69306;BME280;56427;51.580;4.656;2023-03-03T16:54:17;102559.59;;;6.96;100.00
69306;BME280;56427;51.580;4.656;2023-03-03T16:56:57;102554.91;;;6.84;100.00
69306;BME280;56427;51.580;4.656;2023-03-03T16:59:41;102564.47;;;6.82;100.00
69306;BME280;56427;51.580;4.656;2023-03-03T17:02:36;102569.75;;;6.79;100.00
69306;BME280;56427;51.580;4.656;2023-03-03T17:07:42;102573.00;;;6.62;100.00
69306;BME280;56427;51.580;4.656;2023-03-03T17:15:42;102584.78;;;6.68;100.00
69306;BME280;56427;51.580;4.656;2023-03-03T17:29:52;102588.59;;;6.12;100.00
69306;BME280;56427;51.580;4.656;2023-03-03T17:38:09;102600.31;;;6.44;100.00
69306;BME280;56427;51.580;4.656;2023-03-03T17:41:08;102600.41;;;6.19;100.00
69306;BME280;56427;51.580;4.656;2023-03-03T17:43:53;102604.69;;;6.18;100.00